sensor_id;sensor_type;location;lat;lon;timestamp;P1;P2;P0
65556;PMS3003;52200;53.490;14.376;2022-12-08T00:01:36;11.40;5.80;1.00
65556;PMS3003;52200;53.490;14.376;2022-12-08T00:04:02;10.25;6.25;1.75
65556;PMS3003;52200;53.490;14.376;2022-12-08T00:06:29;10.20;2.40;1.00
65556;PMS3003;52200;53.490;14.376;2022-12-08T00:12:13;10.00;4.00;1.00
65556;PMS3003;52200;53.490;14.376;2022-12-08T00:14:44;12.80;5.40;1.00
65556;PMS3003;52200;53.490;14.376;2022-12-08T00:17:12;13.00;5.80;1.80
65556;PMS3003;52200;53.490;14.376;2022-12-08T00:19:39;12.20;5.40;1.00
65556;PMS3003;52200;53.490;14.376;2022-12-08T00:22:06;13.00;6.20;2.80
65556;PMS3003;52200;53.490;14.376;2022-12-08T00:24:34;11.80;6.40;3.00
65556;PMS3003;52200;53.490;14.376;2022-12-08T00:27:04;13.20;4.80;1.00
65556;PMS3003;52200;53.490;14.376;2022-12-08T00:29:34;12.40;4.00;1.00
65556;PMS3003;52200;53.490;14.376;2022-12-08T00:31:59;10.75;4.25;1.00
65556;PMS3003;52200;53.490;14.376;2022-12-08T00:34:25;12.50;5.00;1.00
65556;PMS3003;52200;53.490;14.376;2022-12-08T00:36:51;9.25;3.00;1.00
65556;PMS3003;52200;53.490;14.376;2022-12-08T00:39:16;12.25;5.50;3.00
65556;PMS3003;52200;53.490;14.376;2022-12-08T00:41:42;11.80;4.00;2.80
65556;PMS3003;52200;53.490;14.376;2022-12-08T00:44:28;10.20;4.20;2.40
65556;PMS3003;52200;53.490;14.376;2022-12-08T00:46:53;11.00;4.00;1.50
65556;PMS3003;52200;53.490;14.376;2022-12-08T00:49:19;10.75;4.75;1.00
65556;PMS3003;52200;53.490;14.376;2022-12-08T00:51:44;12.25;6.00;3.00
65556;PMS3003;52200;53.490;14.376;2022-12-08T00:54:10;14.25;5.25;3.00
65556;PMS3003;52200;53.490;14.376;2022-12-08T00:56:36;10.80;4.40;1.00
65556;PMS3003;52200;53.490;14.376;2022-12-08T00:59:03;9.60;4.20;1.40
65556;PMS3003;52200;53.490;14.376;2022-12-08T01:01:30;9.60;2.80;1.00
65556;PMS3003;52200;53.490;14.376;2022-12-08T01:03:55;14.80;5.80;1.00
65556;PMS3003;52200;53.490;14.376;2022-12-08T01:06:21;9.50;4.00;1.00
65556;PMS3003;52200;53.490;14.376;2022-12-08T01:08:47;11.25;6.00;3.00
65556;PMS3003;52200;53.490;14.376;2022-12-08T01:11:13;10.50;4.00;3.00
65556;PMS3003;52200;53.490;14.376;2022-12-08T01:13:41;10.40;4.00;1.00
65556;PMS3003;52200;53.490;14.376;2022-12-08T01:16:08;15.80;8.60;2.20
65556;PMS3003;52200;53.490;14.376;2022-12-08T01:18:34;12.40;4.00;1.00
65556;PMS3003;52200;53.490;14.376;2022-12-08T01:21:04;13.00;7.00;2.20
65556;PMS3003;52200;53.490;14.376;2022-12-08T01:23:31;12.80;6.60;1.00
65556;PMS3003;52200;53.490;14.376;2022-12-08T01:26:00;11.00;4.00;1.00
65556;PMS3003;52200;53.490;14.376;2022-12-08T01:28:32;11.80;5.80;1.00
65556;PMS3003;52200;53.490;14.376;2022-12-08T01:30:59;9.00;3.80;1.00
65556;PMS3003;52200;53.490;14.376;2022-12-08T01:33:25;11.00;4.00;1.00
65556;PMS3003;52200;53.490;14.376;2022-12-08T01:35:51;11.80;4.00;1.00
65556;PMS3003;52200;53.490;14.376;2022-12-08T01:38:17;7.80;3.20;1.00
65556;PMS3003;52200;53.490;14.376;2022-12-08T01:40:43;8.60;3.00;1.00
65556;PMS3003;52200;53.490;14.376;2022-12-08T01:43:12;12.00;3.80;1.00
65556;PMS3003;52200;53.490;14.376;2022-12-08T01:45:40;8.60;3.60;1.00
65556;PMS3003;52200;53.490;14.376;2022-12-08T01:48:07;8.50;3.25;0.75
65556;PMS3003;52200;53.490;14.376;2022-12-08T01:50:37;9.20;3.00;1.00
65556;PMS3003;52200;53.490;14.376;2022-12-08T01:53:09;12.20;5.60;1.00
65556;PMS3003;52200;53.490;14.376;2022-12-08T01:55:40;10.40;5.20;1.00
65556;PMS3003;52200;53.490;14.376;2022-12-08T01:58:13;9.00;3.80;1.00
65556;PMS3003;52200;53.490;14.376;2022-12-08T02:00:42;9.40;3.40;1.00
65556;PMS3003;52200;53.490;14.376;2022-12-08T02:03:11;9.40;4.40;1.00
65556;PMS3003;52200;53.490;14.376;2022-12-08T02:05:40;9.00;3.80;1.00
65556;PMS3003;52200;53.490;14.376;2022-12-08T02:08:09;10.80;5.20;1.00
65556;PMS3003;52200;53.490;14.376;2022-12-08T02:10:37;9.60;4.00;1.80
65556;PMS3003;52200;53.490;14.376;2022-12-08T02:13:05;10.00;6.00;1.00
65556;PMS3003;52200;53.490;14.376;2022-12-08T02:16:19;14.80;6.80;1.00
65556;PMS3003;52200;53.490;14.376;2022-12-08T02:18:53;10.60;3.00;1.00
65556;PMS3003;52200;53.490;14.376;2022-12-08T02:21:28;12.80;6.20;1.00
65556;PMS3003;52200;53.490;14.376;2022-12-08T02:35:52;9.00;3.00;0.40
65556;PMS3003;52200;53.490;14.376;2022-12-08T02:41:22;9.00;3.00;0.00
65556;PMS3003;52200;53.490;14.376;2022-12-08T02:44:07;10.40;3.20;0.80
65556;PMS3003;52200;53.490;14.376;2022-12-08T02:46:44;9.00;3.20;1.00
65556;PMS3003;52200;53.490;14.376;2022-12-08T02:49:15;10.20;2.60;0.00
65556;PMS3003;52200;53.490;14.376;2022-12-08T02:51:41;9.25;1.50;0.00
65556;PMS3003;52200;53.490;14.376;2022-12-08T02:54:06;9.00;3.00;0.25
65556;PMS3003;52200;53.490;14.376;2022-12-08T03:04:45;7.40;1.00;0.00
65556;PMS3003;52200;53.490;14.376;2022-12-08T03:10:25;6.50;1.00;0.25
65556;PMS3003;52200;53.490;14.376;2022-12-08T03:13:07;8.20;3.00;1.00
65556;PMS3003;52200;53.490;14.376;2022-12-08T03:15:38;9.60;3.60;1.00
65556;PMS3003;52200;53.490;14.376;2022-12-08T03:18:05;10.00;4.00;0.00
65556;PMS3003;52200;53.490;14.376;2022-12-08T03:20:34;5.80;0.60;0.00
65556;PMS3003;52200;53.490;14.376;2022-12-08T03:23:03;6.60;0.80;0.00
65556;PMS3003;52200;53.490;14.376;2022-12-08T03:25:32;8.80;2.80;0.80
65556;PMS3003;52200;53.490;14.376;2022-12-08T03:28:02;7.40;0.80;0.00
65556;PMS3003;52200;53.490;14.376;2022-12-08T03:30:29;7.20;2.20;0.80
65556;PMS3003;52200;53.490;14.376;2022-12-08T03:33:01;6.60;1.80;0.20
65556;PMS3003;52200;53.490;14.376;2022-12-08T03:35:32;7.00;2.60;0.00
65556;PMS3003;52200;53.490;14.376;2022-12-08T03:38:19;7.00;2.60;0.00
65556;PMS3003;52200;53.490;14.376;2022-12-08T03:40:46;10.40;3.60;0.60
65556;PMS3003;52200;53.490;14.376;2022-12-08T03:43:34;8.00;3.00;1.00
65556;PMS3003;52200;53.490;14.376;2022-12-08T03:46:00;12.00;4.00;0.00
65556;PMS3003;52200;53.490;14.376;2022-12-08T03:48:26;8.60;2.80;0.60
65556;PMS3003;52200;53.490;14.376;2022-12-08T03:50:52;9.00;3.00;0.00
65556;PMS3003;52200;53.490;14.376;2022-12-08T03:53:17;9.00;3.00;1.00
65556;PMS3003;52200;53.490;14.376;2022-12-08T03:55:43;8.50;3.00;0.25
65556;PMS3003;52200;53.490;14.376;2022-12-08T03:58:08;9.25;3.75;1.00
65556;PMS3003;52200;53.490;14.376;2022-12-08T04:00:34;8.50;3.00;0.50
65556;PMS3003;52200;53.490;14.376;2022-12-08T04:02:59;9.00;3.00;0.00
65556;PMS3003;52200;53.490;14.376;2022-12-08T04:05:25;7.75;1.50;0.50
65556;PMS3003;52200;53.490;14.376;2022-12-08T04:07:50;7.00;1.00;0.75
65556;PMS3003;52200;53.490;14.376;2022-12-08T04:10:16;7.00;1.00;0.00
65556;PMS3003;52200;53.490;14.376;2022-12-08T04:12:41;11.50;4.00;0.00
65556;PMS3003;52200;53.490;14.376;2022-12-08T04:15:07;12.00;4.00;1.00
65556;PMS3003;52200;53.490;14.376;2022-12-08T04:17:33;9.00;4.00;1.00
65556;PMS3003;52200;53.490;14.376;2022-12-08T04:19:58;7.00;1.00;0.25
65556;PMS3003;52200;53.490;14.376;2022-12-08T04:22:24;9.00;1.00;0.75
65556;PMS3003;52200;53.490;14.376;2022-12-08T04:24:49;8.00;3.25;1.00
65556;PMS3003;52200;53.490;14.376;2022-12-08T04:27:15;9.00;3.00;1.00
65556;PMS3003;52200;53.490;14.376;2022-12-08T04:29:40;10.00;3.00;0.00
65556;PMS3003;52200;53.490;14.376;2022-12-08T04:32:06;9.75;1.50;0.75
65556;PMS3003;52200;53.490;14.376;2022-12-08T04:34:32;12.25;3.75;1.00
65556;PMS3003;52200;53.490;14.376;2022-12-08T04:36:58;8.80;1.00;0.80
65556;PMS3003;52200;53.490;14.376;2022-12-08T04:39:23;12.50;6.25;1.00
65556;PMS3003;52200;53.490;14.376;2022-12-08T04:41:49;10.75;3.00;1.00
65556;PMS3003;52200;53.490;14.376;2022-12-08T04:44:14;9.00;2.00;1.00
65556;PMS3003;52200;53.490;14.376;2022-12-08T04:46:40;16.50;5.00;2.50
65556;PMS3003;52200;53.490;14.376;2022-12-08T04:49:05;9.00;4.00;0.50
65556;PMS3003;52200;53.490;14.376;2022-12-08T04:51:31;9.00;4.00;1.00
65556;PMS3003;52200;53.490;14.376;2022-12-08T04:53:56;11.50;5.25;1.75
65556;PMS3003;52200;53.490;14.376;2022-12-08T04:56:23;10.80;5.20;1.00
65556;PMS3003;52200;53.490;14.376;2022-12-08T04:58:48;11.50;4.00;1.00
65556;PMS3003;52200;53.490;14.376;2022-12-08T05:01:14;14.00;8.00;3.00
65556;PMS3003;52200;53.490;14.376;2022-12-08T05:03:40;11.80;5.00;1.40
65556;PMS3003;52200;53.490;14.376;2022-12-08T05:06:05;13.50;4.00;1.00
65556;PMS3003;52200;53.490;14.376;2022-12-08T05:08:31;12.75;5.00;1.00
65556;PMS3003;52200;53.490;14.376;2022-12-08T05:11:01;12.60;6.60;1.80
65556;PMS3003;52200;53.490;14.376;2022-12-08T05:13:27;13.40;8.60;3.20
65556;PMS3003;52200;53.490;14.376;2022-12-08T05:15:53;14.80;7.00;3.40
65556;PMS3003;52200;53.490;14.376;2022-12-08T05:18:36;14.40;8.00;5.80
65556;PMS3003;52200;53.490;14.376;2022-12-08T05:21:03;21.20;10.40;7.40
65556;PMS3003;52200;53.490;14.376;2022-12-08T05:23:29;20.80;13.00;5.20
65556;PMS3003;52200;53.490;14.376;2022-12-08T05:25:54;27.25;18.00;6.00
65556;PMS3003;52200;53.490;14.376;2022-12-08T05:28:20;26.50;17.25;9.00
65556;PMS3003;52200;53.490;14.376;2022-12-08T05:30:45;21.50;15.00;9.00
65556;PMS3003;52200;53.490;14.376;2022-12-08T05:33:11;32.00;20.25;9.50
65556;PMS3003;52200;53.490;14.376;2022-12-08T05:35:37;29.25;19.75;9.00
65556;PMS3003;52200;53.490;14.376;2022-12-08T05:38:02;37.75;25.75;12.00
65556;PMS3003;52200;53.490;14.376;2022-12-08T05:40:28;38.25;25.25;13.00
65556;PMS3003;52200;53.490;14.376;2022-12-08T05:42:53;36.25;22.00;11.75
65556;PMS3003;52200;53.490;14.376;2022-12-08T05:45:19;34.50;22.00;10.00
65556;PMS3003;52200;53.490;14.376;2022-12-08T05:47:44;44.25;27.75;15.50
65556;PMS3003;52200;53.490;14.376;2022-12-08T05:50:10;33.50;23.75;12.00
65556;PMS3003;52200;53.490;14.376;2022-12-08T05:52:35;31.75;25.00;11.50
65556;PMS3003;52200;53.490;14.376;2022-12-08T05:55:01;24.50;18.75;9.00
65556;PMS3003;52200;53.490;14.376;2022-12-08T05:57:27;27.40;18.40;8.00
65556;PMS3003;52200;53.490;14.376;2022-12-08T05:59:52;22.75;14.75;7.00
65556;PMS3003;52200;53.490;14.376;2022-12-08T06:02:17;24.00;15.75;5.25
65556;PMS3003;52200;53.490;14.376;2022-12-08T06:04:43;25.50;18.75;8.25
65556;PMS3003;52200;53.490;14.376;2022-12-08T06:07:08;24.25;18.00;7.00
65556;PMS3003;52200;53.490;14.376;2022-12-08T06:09:34;25.00;16.00;7.00
65556;PMS3003;52200;53.490;14.376;2022-12-08T06:11:59;26.75;14.75;6.00
65556;PMS3003;52200;53.490;14.376;2022-12-08T06:14:25;21.60;14.40;6.00
65556;PMS3003;52200;53.490;14.376;2022-12-08T06:16:52;23.40;15.20;7.00
65556;PMS3003;52200;53.490;14.376;2022-12-08T06:19:17;24.00;14.75;6.75
65556;PMS3003;52200;53.490;14.376;2022-12-08T06:21:43;21.60;14.20;6.60
65556;PMS3003;52200;53.490;14.376;2022-12-08T06:24:08;25.25;16.00;7.00
65556;PMS3003;52200;53.490;14.376;2022-12-08T06:26:34;21.50;15.75;7.00
65556;PMS3003;52200;53.490;14.376;2022-12-08T06:29:00;22.75;15.00;5.50
65556;PMS3003;52200;53.490;14.376;2022-12-08T06:31:26;20.20;11.60;5.00
65556;PMS3003;52200;53.490;14.376;2022-12-08T06:33:52;19.60;11.00;5.20
65556;PMS3003;52200;53.490;14.376;2022-12-08T06:36:19;23.80;15.60;6.80
65556;PMS3003;52200;53.490;14.376;2022-12-08T06:38:47;18.80;11.80;4.60
65556;PMS3003;52200;53.490;14.376;2022-12-08T06:41:12;29.60;22.60;10.80
65556;PMS3003;52200;53.490;14.376;2022-12-08T06:43:38;22.40;13.80;5.60
65556;PMS3003;52200;53.490;14.376;2022-12-08T06:46:06;20.60;15.40;6.00
65556;PMS3003;52200;53.490;14.376;2022-12-08T06:48:33;16.20;10.80;3.00
65556;PMS3003;52200;53.490;14.376;2022-12-08T06:51:05;21.75;10.00;5.00
65556;PMS3003;52200;53.490;14.376;2022-12-08T06:53:36;21.40;16.20;4.60
65556;PMS3003;52200;53.490;14.376;2022-12-08T06:56:02;32.00;19.00;9.00
65556;PMS3003;52200;53.490;14.376;2022-12-08T06:58:27;26.75;16.00;7.00
65556;PMS3003;52200;53.490;14.376;2022-12-08T07:00:53;21.50;14.25;7.00
65556;PMS3003;52200;53.490;14.376;2022-12-08T07:03:19;23.75;16.25;8.00
65556;PMS3003;52200;53.490;14.376;2022-12-08T07:05:44;27.00;20.00;8.00
65556;PMS3003;52200;53.490;14.376;2022-12-08T07:08:10;21.25;15.00;7.00
65556;PMS3003;52200;53.490;14.376;2022-12-08T07:10:35;24.00;14.75;6.50
65556;PMS3003;52200;53.490;14.376;2022-12-08T07:13:01;19.25;13.50;6.75
65556;PMS3003;52200;53.490;14.376;2022-12-08T07:15:27;26.25;15.00;4.75
65556;PMS3003;52200;53.490;14.376;2022-12-08T07:17:52;23.75;14.75;7.00
65556;PMS3003;52200;53.490;14.376;2022-12-08T07:20:18;20.75;14.75;7.25
65556;PMS3003;52200;53.490;14.376;2022-12-08T07:22:47;25.00;17.25;7.00
65556;PMS3003;52200;53.490;14.376;2022-12-08T07:25:14;21.00;13.20;7.00
65556;PMS3003;52200;53.490;14.376;2022-12-08T07:27:40;21.80;15.00;7.00
65556;PMS3003;52200;53.490;14.376;2022-12-08T07:30:06;24.00;15.50;7.00
65556;PMS3003;52200;53.490;14.376;2022-12-08T07:32:32;25.60;13.80;7.00
65556;PMS3003;52200;53.490;14.376;2022-12-08T07:34:57;26.00;17.25;7.50
65556;PMS3003;52200;53.490;14.376;2022-12-08T07:37:23;20.50;14.25;6.00
65556;PMS3003;52200;53.490;14.376;2022-12-08T07:39:48;25.00;16.50;7.00
65556;PMS3003;52200;53.490;14.376;2022-12-08T07:42:13;25.00;19.50;10.00
65556;PMS3003;52200;53.490;14.376;2022-12-08T07:44:39;25.00;17.25;7.50
65556;PMS3003;52200;53.490;14.376;2022-12-08T07:47:04;25.00;18.75;10.00
65556;PMS3003;52200;53.490;14.376;2022-12-08T07:49:30;31.00;21.75;10.00
65556;PMS3003;52200;53.490;14.376;2022-12-08T07:51:55;33.25;20.50;9.25
65556;PMS3003;52200;53.490;14.376;2022-12-08T07:54:21;26.25;20.75;10.00
65556;PMS3003;52200;53.490;14.376;2022-12-08T07:56:46;33.50;22.25;10.25
65556;PMS3003;52200;53.490;14.376;2022-12-08T07:59:11;29.50;22.75;11.00
65556;PMS3003;52200;53.490;14.376;2022-12-08T08:01:38;35.00;24.20;14.00
65556;PMS3003;52200;53.490;14.376;2022-12-08T08:04:04;36.75;23.00;10.75
65556;PMS3003;52200;53.490;14.376;2022-12-08T08:06:30;34.40;22.20;11.00
65556;PMS3003;52200;53.490;14.376;2022-12-08T08:08:56;31.20;25.40;13.00
65556;PMS3003;52200;53.490;14.376;2022-12-08T08:11:22;33.00;27.25;14.00
65556;PMS3003;52200;53.490;14.376;2022-12-08T08:13:48;39.00;31.25;15.50
65556;PMS3003;52200;53.490;14.376;2022-12-08T08:16:14;38.80;24.60;14.40
65556;PMS3003;52200;53.490;14.376;2022-12-08T08:18:40;33.00;22.00;12.25
65556;PMS3003;52200;53.490;14.376;2022-12-08T08:21:06;29.60;20.40;8.00
65556;PMS3003;52200;53.490;14.376;2022-12-08T08:23:32;31.80;21.80;11.20
65556;PMS3003;52200;53.490;14.376;2022-12-08T08:26:01;38.40;26.60;10.80
65556;PMS3003;52200;53.490;14.376;2022-12-08T08:28:28;35.40;23.00;10.80
65556;PMS3003;52200;53.490;14.376;2022-12-08T08:30:54;32.00;23.25;11.75
65556;PMS3003;52200;53.490;14.376;2022-12-08T08:33:19;32.60;20.60;11.00
65556;PMS3003;52200;53.490;14.376;2022-12-08T08:35:45;36.75;25.50;12.25
65556;PMS3003;52200;53.490;14.376;2022-12-08T08:38:11;35.00;24.25;13.50
65556;PMS3003;52200;53.490;14.376;2022-12-08T08:40:36;33.00;24.00;9.50
65556;PMS3003;52200;53.490;14.376;2022-12-08T08:43:05;28.50;22.50;12.50
65556;PMS3003;52200;53.490;14.376;2022-12-08T08:45:31;33.40;27.20;12.80
65556;PMS3003;52200;53.490;14.376;2022-12-08T08:47:57;28.20;23.20;11.20
65556;PMS3003;52200;53.490;14.376;2022-12-08T08:50:23;25.00;21.00;11.00
65556;PMS3003;52200;53.490;14.376;2022-12-08T08:52:49;27.60;18.80;8.80
65556;PMS3003;52200;53.490;14.376;2022-12-08T08:55:15;31.25;19.00;8.00
65556;PMS3003;52200;53.490;14.376;2022-12-08T08:57:40;37.75;24.25;10.00
65556;PMS3003;52200;53.490;14.376;2022-12-08T09:00:06;28.50;21.50;11.00
65556;PMS3003;52200;53.490;14.376;2022-12-08T09:02:34;29.00;22.80;11.40
65556;PMS3003;52200;53.490;14.376;2022-12-08T09:05:00;25.40;17.00;8.80
65556;PMS3003;52200;53.490;14.376;2022-12-08T09:07:26;32.00;21.75;9.00
65556;PMS3003;52200;53.490;14.376;2022-12-08T09:09:51;28.25;19.25;11.00
65556;PMS3003;52200;53.490;14.376;2022-12-08T09:12:17;36.25;24.50;11.00
65556;PMS3003;52200;53.490;14.376;2022-12-08T09:14:43;29.25;23.25;10.00
65556;PMS3003;52200;53.490;14.376;2022-12-08T09:17:09;27.60;20.40;8.20
65556;PMS3003;52200;53.490;14.376;2022-12-08T09:19:35;34.50;21.00;11.25
65556;PMS3003;52200;53.490;14.376;2022-12-08T09:22:01;30.00;23.60;13.60
65556;PMS3003;52200;53.490;14.376;2022-12-08T09:24:26;31.75;19.75;9.00
65556;PMS3003;52200;53.490;14.376;2022-12-08T09:26:52;29.25;23.75;11.50
65556;PMS3003;52200;53.490;14.376;2022-12-08T09:29:17;33.25;25.00;12.00
65556;PMS3003;52200;53.490;14.376;2022-12-08T09:31:42;33.25;23.25;12.00
65556;PMS3003;52200;53.490;14.376;2022-12-08T09:34:09;34.75;25.00;11.50
65556;PMS3003;52200;53.490;14.376;2022-12-08T09:36:36;36.40;25.00;12.00
65556;PMS3003;52200;53.490;14.376;2022-12-08T09:39:01;39.50;28.00;14.00
65556;PMS3003;52200;53.490;14.376;2022-12-08T09:47:04;41.20;30.60;12.00
65556;PMS3003;52200;53.490;14.376;2022-12-08T09:50:00;35.20;27.00;12.80
65556;PMS3003;52200;53.490;14.376;2022-12-08T09:52:51;37.80;23.40;13.40
65556;PMS3003;52200;53.490;14.376;2022-12-08T09:55:41;35.40;26.40;12.20
65556;PMS3003;52200;53.490;14.376;2022-12-08T10:01:18;39.60;28.40;11.60
65556;PMS3003;52200;53.490;14.376;2022-12-08T10:03:48;32.60;22.80;11.00
65556;PMS3003;52200;53.490;14.376;2022-12-08T10:06:23;37.40;28.60;12.00
65556;PMS3003;52200;53.490;14.376;2022-12-08T10:09:02;31.60;23.40;11.40
65556;PMS3003;52200;53.490;14.376;2022-12-08T10:11:54;40.40;28.40;12.00
65556;PMS3003;52200;53.490;14.376;2022-12-08T10:17:16;33.60;24.60;12.00
65556;PMS3003;52200;53.490;14.376;2022-12-08T10:19:48;36.00;26.80;12.60
65556;PMS3003;52200;53.490;14.376;2022-12-08T10:22:21;35.80;25.80;13.60
65556;PMS3003;52200;53.490;14.376;2022-12-08T10:24:52;35.60;27.60;13.20
65556;PMS3003;52200;53.490;14.376;2022-12-08T10:27:23;36.00;27.40;14.20
65556;PMS3003;52200;53.490;14.376;2022-12-08T10:29:49;39.75;29.50;13.00
65556;PMS3003;52200;53.490;14.376;2022-12-08T10:32:18;37.25;28.75;12.75
65556;PMS3003;52200;53.490;14.376;2022-12-08T10:37:38;36.20;27.80;13.60
65556;PMS3003;52200;53.490;14.376;2022-12-08T10:42:36;38.40;30.60;15.00
65556;PMS3003;52200;53.490;14.376;2022-12-08T10:47:34;39.20;32.20;16.60
65556;PMS3003;52200;53.490;14.376;2022-12-08T10:50:15;43.00;35.20;15.80
65556;PMS3003;52200;53.490;14.376;2022-12-08T10:52:43;39.60;29.40;14.80
65556;PMS3003;52200;53.490;14.376;2022-12-08T10:55:17;38.20;28.60;14.20
65556;PMS3003;52200;53.490;14.376;2022-12-08T10:57:44;41.00;31.80;13.80
65556;PMS3003;52200;53.490;14.376;2022-12-08T11:00:13;40.00;32.80;15.00
65556;PMS3003;52200;53.490;14.376;2022-12-08T11:02:55;36.20;26.00;13.60
65556;PMS3003;52200;53.490;14.376;2022-12-08T11:05:25;40.80;25.20;12.80
65556;PMS3003;52200;53.490;14.376;2022-12-08T11:07:53;30.20;24.60;13.80
65556;PMS3003;52200;53.490;14.376;2022-12-08T11:10:26;37.20;26.40;14.60
65556;PMS3003;52200;53.490;14.376;2022-12-08T11:12:58;30.20;23.20;14.00
65556;PMS3003;52200;53.490;14.376;2022-12-08T11:15:25;34.20;29.60;12.00
65556;PMS3003;52200;53.490;14.376;2022-12-08T11:18:01;37.00;27.00;13.00
65556;PMS3003;52200;53.490;14.376;2022-12-08T11:20:39;37.40;25.60;14.80
65556;PMS3003;52200;53.490;14.376;2022-12-08T11:23:17;32.00;23.40;12.80
65556;PMS3003;52200;53.490;14.376;2022-12-08T11:25:45;33.20;27.00;11.40
65556;PMS3003;52200;53.490;14.376;2022-12-08T11:28:11;27.80;20.20;12.20
65556;PMS3003;52200;53.490;14.376;2022-12-08T11:30:37;30.75;22.25;12.00
65556;PMS3003;52200;53.490;14.376;2022-12-08T11:33:12;30.60;21.00;11.20
65556;PMS3003;52200;53.490;14.376;2022-12-08T11:35:40;32.80;24.80;11.80
65556;PMS3003;52200;53.490;14.376;2022-12-08T11:38:19;30.60;23.00;11.60
65556;PMS3003;52200;53.490;14.376;2022-12-08T11:40:51;33.40;23.20;12.00
65556;PMS3003;52200;53.490;14.376;2022-12-08T11:45:58;32.00;23.80;10.80
65556;PMS3003;52200;53.490;14.376;2022-12-08T11:48:31;28.80;20.00;11.40
65556;PMS3003;52200;53.490;14.376;2022-12-08T11:51:02;25.40;19.80;9.80
65556;PMS3003;52200;53.490;14.376;2022-12-08T11:58:43;27.20;21.20;11.80
65556;PMS3003;52200;53.490;14.376;2022-12-08T12:01:16;28.00;22.80;11.20
65556;PMS3003;52200;53.490;14.376;2022-12-08T12:03:51;30.80;22.40;9.20
65556;PMS3003;52200;53.490;14.376;2022-12-08T12:11:19;27.20;20.80;11.00
65556;PMS3003;52200;53.490;14.376;2022-12-08T12:16:58;28.00;20.80;8.60
65556;PMS3003;52200;53.490;14.376;2022-12-08T12:19:28;35.40;25.20;12.40
65556;PMS3003;52200;53.490;14.376;2022-12-08T12:22:06;30.80;23.60;12.00
65556;PMS3003;52200;53.490;14.376;2022-12-08T12:24:36;28.60;23.60;12.00
65556;PMS3003;52200;53.490;14.376;2022-12-08T12:29:37;36.00;24.80;12.00
65556;PMS3003;52200;53.490;14.376;2022-12-08T12:32:10;30.60;23.20;10.80
65556;PMS3003;52200;53.490;14.376;2022-12-08T12:34:37;29.60;22.00;10.80
65556;PMS3003;52200;53.490;14.376;2022-12-08T12:37:14;28.80;21.60;11.80
65556;PMS3003;52200;53.490;14.376;2022-12-08T12:45:21;37.40;27.20;14.60
65556;PMS3003;52200;53.490;14.376;2022-12-08T12:55:27;28.40;22.20;10.60
65556;PMS3003;52200;53.490;14.376;2022-12-08T12:58:18;26.60;21.60;9.20
65556;PMS3003;52200;53.490;14.376;2022-12-08T13:03:32;29.20;21.80;12.20
65556;PMS3003;52200;53.490;14.376;2022-12-08T13:05:58;27.20;19.20;9.00
65556;PMS3003;52200;53.490;14.376;2022-12-08T13:08:25;29.75;20.00;11.75
65556;PMS3003;52200;53.490;14.376;2022-12-08T13:11:09;24.40;19.00;8.20
65556;PMS3003;52200;53.490;14.376;2022-12-08T13:13:36;24.60;16.60;9.40
65556;PMS3003;52200;53.490;14.376;2022-12-08T13:16:12;25.00;19.20;9.20
65556;PMS3003;52200;53.490;14.376;2022-12-08T13:18:49;20.60;16.00;9.00
65556;PMS3003;52200;53.490;14.376;2022-12-08T13:21:20;23.60;17.20;9.20
65556;PMS3003;52200;53.490;14.376;2022-12-08T13:23:49;24.80;17.80;8.40
65556;PMS3003;52200;53.490;14.376;2022-12-08T13:26:41;22.60;17.80;7.80
65556;PMS3003;52200;53.490;14.376;2022-12-08T13:29:19;23.60;19.00;8.20
65556;PMS3003;52200;53.490;14.376;2022-12-08T13:31:55;23.20;14.60;8.00
65556;PMS3003;52200;53.490;14.376;2022-12-08T13:47:39;18.20;12.80;5.00
65556;PMS3003;52200;53.490;14.376;2022-12-08T13:50:13;21.40;15.40;7.60
65556;PMS3003;52200;53.490;14.376;2022-12-08T13:52:56;23.80;18.00;9.00
65556;PMS3003;52200;53.490;14.376;2022-12-08T13:55:34;19.00;12.00;6.00
65556;PMS3003;52200;53.490;14.376;2022-12-08T13:58:14;20.60;14.00;7.00
65556;PMS3003;52200;53.490;14.376;2022-12-08T14:06:17;28.40;20.40;8.40
65556;PMS3003;52200;53.490;14.376;2022-12-08T14:08:56;23.60;18.40;10.00
65556;PMS3003;52200;53.490;14.376;2022-12-08T14:14:11;26.60;18.60;8.00
65556;PMS3003;52200;53.490;14.376;2022-12-08T14:16:40;22.80;15.40;8.60
65556;PMS3003;52200;53.490;14.376;2022-12-08T14:19:15;24.60;19.00;9.60
65556;PMS3003;52200;53.490;14.376;2022-12-08T14:21:47;26.80;21.40;11.00
65556;PMS3003;52200;53.490;14.376;2022-12-08T14:24:17;24.80;20.60;12.40
65556;PMS3003;52200;53.490;14.376;2022-12-08T14:26:43;21.50;15.25;9.00
65556;PMS3003;52200;53.490;14.376;2022-12-08T14:29:12;24.00;16.20;8.80
65556;PMS3003;52200;53.490;14.376;2022-12-08T14:32:27;19.40;14.80;8.80
65556;PMS3003;52200;53.490;14.376;2022-12-08T14:37:31;30.60;26.20;13.80
65556;PMS3003;52200;53.490;14.376;2022-12-08T14:40:06;38.60;31.80;15.60
65556;PMS3003;52200;53.490;14.376;2022-12-08T14:43:31;35.40;27.80;15.20
65556;PMS3003;52200;53.490;14.376;2022-12-08T14:45:56;26.60;17.80;9.60
65556;PMS3003;52200;53.490;14.376;2022-12-08T14:53:20;23.50;15.75;8.75
65556;PMS3003;52200;53.490;14.376;2022-12-08T14:55:46;25.00;18.40;8.80
65556;PMS3003;52200;53.490;14.376;2022-12-08T14:58:20;29.40;23.20;11.80
65556;PMS3003;52200;53.490;14.376;2022-12-08T15:00:54;28.60;19.00;8.60
65556;PMS3003;52200;53.490;14.376;2022-12-08T15:03:22;22.80;18.60;8.00
65556;PMS3003;52200;53.490;14.376;2022-12-08T15:05:51;21.20;15.80;8.40
65556;PMS3003;52200;53.490;14.376;2022-12-08T15:08:20;21.80;15.40;8.00
65556;PMS3003;52200;53.490;14.376;2022-12-08T15:10:46;30.00;20.75;9.75
65556;PMS3003;52200;53.490;14.376;2022-12-08T15:13:58;23.00;17.00;7.60
65556;PMS3003;52200;53.490;14.376;2022-12-08T15:16:28;22.40;18.00;8.60
65556;PMS3003;52200;53.490;14.376;2022-12-08T15:19:03;18.80;12.40;7.80
65556;PMS3003;52200;53.490;14.376;2022-12-08T15:21:51;21.60;16.00;9.00
65556;PMS3003;52200;53.490;14.376;2022-12-08T15:24:17;27.40;20.40;11.20
65556;PMS3003;52200;53.490;14.376;2022-12-08T15:26:45;32.20;25.80;12.80
65556;PMS3003;52200;53.490;14.376;2022-12-08T15:29:18;22.00;17.40;8.80
65556;PMS3003;52200;53.490;14.376;2022-12-08T15:31:49;22.00;16.20;6.60
65556;PMS3003;52200;53.490;14.376;2022-12-08T15:34:17;23.00;16.40;7.20
65556;PMS3003;52200;53.490;14.376;2022-12-08T15:36:51;26.20;20.20;11.40
65556;PMS3003;52200;53.490;14.376;2022-12-08T15:39:20;32.00;22.60;11.60
65556;PMS3003;52200;53.490;14.376;2022-12-08T15:41:52;25.00;18.20;9.00
65556;PMS3003;52200;53.490;14.376;2022-12-08T15:44:18;23.00;17.50;10.50
65556;PMS3003;52200;53.490;14.376;2022-12-08T15:46:43;32.75;26.50;16.50
65556;PMS3003;52200;53.490;14.376;2022-12-08T15:49:19;34.00;28.00;14.75
65556;PMS3003;52200;53.490;14.376;2022-12-08T15:51:47;37.00;25.40;12.00